createdAt,value
2023-02-24T00:00:53.187Z,101307.28
2023-02-24T00:04:00.383Z,101310.78
2023-02-24T00:07:04.232Z,101304.69
2023-02-24T00:10:12.202Z,101303.00
2023-02-24T00:13:22.328Z,101301.25
2023-02-24T00:16:27.387Z,101303.84
2023-02-24T00:19:34.028Z,101304.69
2023-02-24T00:22:37.619Z,101298.66
2023-02-24T00:25:41.075Z,101289.13
2023-02-24T00:28:46.064Z,101283.94
2023-02-24T00:32:00.356Z,101278.78
2023-02-24T00:35:04.385Z,101281.34
2023-02-24T00:38:07.811Z,101279.66
2023-02-24T00:41:14.410Z,101265.81
2023-02-24T00:44:19.247Z,101264.97
2023-02-24T00:47:23.705Z,101253.75
2023-02-24T00:50:27.496Z,101250.25
2023-02-24T00:53:31.072Z,101238.19
2023-02-24T00:56:35.288Z,101237.34
2023-02-24T00:59:40.656Z,101225.22
2023-02-24T01:02:46.386Z,101219.19
2023-02-24T01:05:50.658Z,101210.56
2023-02-24T01:08:56.249Z,101218.34
2023-02-24T01:12:17.251Z,101206.22
2023-02-24T01:15:24.146Z,101206.22
2023-02-24T01:18:27.610Z,101193.28
2023-02-24T01:21:31.557Z,101190.69
2023-02-24T01:24:39.146Z,101178.59
2023-02-24T01:27:42.732Z,101180.31
2023-02-24T01:30:47.689Z,101166.50
2023-02-24T01:33:52.150Z,101171.66
2023-02-24T01:36:55.922Z,101159.56
2023-02-24T01:39:59.419Z,101156.13
2023-02-24T01:43:08.674Z,101145.75
2023-02-24T01:46:13.790Z,101146.59
2023-02-24T01:49:22.305Z,101145.75
2023-02-24T01:52:31.532Z,101143.16
2023-02-24T01:55:41.633Z,101132.78
2023-02-24T01:58:45.443Z,101121.56
2023-02-24T02:01:53.472Z,101117.22
2023-02-24T02:05:03.848Z,101107.72
2023-02-24T02:08:09.836Z,101104.28
2023-02-24T02:11:22.774Z,101090.44
2023-02-24T02:14:32.247Z,101096.50
2023-02-24T02:17:51.337Z,101096.50
2023-02-24T02:21:56.412Z,101088.72
2023-02-24T02:25:10.635Z,101080.09
2023-02-24T02:28:58.701Z,101074.91
2023-02-24T02:32:52.357Z,101074.88
2023-02-24T02:36:07.318Z,101067.09
2023-02-24T02:39:27.095Z,101064.50
2023-02-24T02:42:43.510Z,101058.47
2023-02-24T02:45:58.154Z,101055.00
2023-02-24T02:49:16.936Z,101061.06
2023-02-24T02:52:30.092Z,101059.34
2023-02-24T02:55:43.210Z,101056.75
2023-02-24T02:58:54.342Z,101052.41
2023-02-24T03:02:11.660Z,101046.38
2023-02-24T03:05:21.440Z,101037.75
2023-02-24T03:08:34.724Z,101045.53
2023-02-24T03:11:38.669Z,101040.31
2023-02-24T03:14:51.171Z,101025.66
2023-02-24T03:18:02.789Z,101029.97
2023-02-24T03:21:11.955Z,101020.47
2023-02-24T03:24:17.221Z,101015.28
2023-02-24T03:27:30.345Z,101004.91
2023-02-24T03:30:44.558Z,101001.47
2023-02-24T03:34:00.577Z,100998.88
2023-02-24T03:37:04.949Z,100989.34
2023-02-24T03:40:15.932Z,100986.75
2023-02-24T03:43:27.972Z,100983.31
2023-02-24T03:46:33.175Z,100983.31
2023-02-24T03:49:38.442Z,100974.69
2023-02-24T03:52:48.995Z,100976.41
2023-02-24T03:56:11.029Z,100971.22
2023-02-24T03:59:34.374Z,100964.31
2023-02-24T04:02:38.817Z,100958.25
2023-02-24T04:05:50.805Z,100949.63
2023-02-24T04:09:04.780Z,100955.63
2023-02-24T04:12:19.928Z,100944.44
2023-02-24T04:15:31.063Z,100930.63
2023-02-24T04:18:35.404Z,100931.50
2023-02-24T04:21:43.068Z,100920.25
2023-02-24T04:24:53.405Z,100908.19
2023-02-24T04:28:03.146Z,100911.63
2023-02-24T04:31:17.604Z,100905.59
2023-02-24T04:34:21.307Z,100898.69
2023-02-24T04:37:31.889Z,100881.41
2023-02-24T04:40:36.818Z,100868.44
2023-02-24T04:43:41.982Z,100870.19
2023-02-24T04:46:45.997Z,100863.28
2023-02-24T04:49:49.623Z,100861.53
2023-02-24T04:52:56.162Z,100852.03
2023-02-24T04:56:09.047Z,100839.97
2023-02-24T04:59:14.136Z,100836.50
2023-02-24T05:02:20.005Z,100831.31
2023-02-24T05:05:27.701Z,100824.41
2023-02-24T05:08:32.278Z,100819.22
2023-02-24T05:11:36.665Z,100811.47
2023-02-24T05:14:41.633Z,100804.56
2023-02-24T05:17:45.098Z,100796.75
2023-02-24T05:21:09.384Z,100788.97
2023-02-24T05:24:17.190Z,100774.31
2023-02-24T05:27:21.410Z,100762.19
2023-02-24T05:30:26.527Z,100760.47
2023-02-24T05:33:29.992Z,100748.41
2023-02-24T05:36:39.075Z,100735.44
2023-02-24T05:39:42.639Z,100733.72
2023-02-24T05:42:46.274Z,100725.06
2023-02-24T05:45:51.215Z,100714.69
2023-02-24T05:48:56.917Z,100720.72
2023-02-24T05:52:07.557Z,100703.47
2023-02-24T05:55:14.128Z,100704.31
2023-02-24T05:58:17.752Z,100695.72
2023-02-24T06:01:22.828Z,100685.31
2023-02-24T06:04:39.542Z,100688.78
2023-02-24T06:07:47.302Z,100674.09
2023-02-24T06:10:51.692Z,100672.34
2023-02-24T06:13:57.987Z,100673.22
2023-02-24T06:17:03.846Z,100670.66
2023-02-24T06:20:15.484Z,100669.78
2023-02-24T06:23:19.527Z,100667.22
2023-02-24T06:26:23.129Z,100667.25
2023-02-24T06:29:29.668Z,100676.81
2023-02-24T06:32:35.822Z,100675.06
2023-02-24T06:35:39.575Z,100666.50
2023-02-24T06:38:43.831Z,100666.53
2023-02-24T06:41:53.004Z,100657.91
2023-02-24T06:44:56.668Z,100655.34
2023-02-24T06:48:01.689Z,100657.94
2023-02-24T06:51:07.333Z,100640.72
2023-02-24T06:54:12.725Z,100631.25
2023-02-24T06:57:16.413Z,100629.53
2023-02-24T07:00:25.251Z,100626.94
2023-02-24T07:03:39.674Z,100627.78
2023-02-24T07:06:45.838Z,100601.88
2023-02-24T07:09:49.460Z,100602.78
2023-02-24T07:12:54.724Z,100595.00
2023-02-24T07:16:04.158Z,100587.22
2023-02-24T07:19:14.156Z,100592.41
2023-02-24T07:22:25.241Z,100588.13
2023-02-24T07:25:34.040Z,100576.06
2023-02-24T07:28:39.986Z,100569.13
2023-02-24T07:31:43.697Z,100561.34
2023-02-24T07:34:48.716Z,100557.06
2023-02-24T07:37:53.001Z,100549.31
2023-02-24T07:40:59.702Z,100555.31
2023-02-24T07:44:05.959Z,100544.97
2023-02-24T07:47:10.060Z,100538.06
2023-02-24T07:50:18.486Z,100538.94
2023-02-24T07:53:22.746Z,100542.38
2023-02-24T07:56:28.454Z,100538.03
2023-02-24T07:59:35.298Z,100538.06
2023-02-24T08:02:39.029Z,100527.69
2023-02-24T08:05:44.786Z,100523.44
2023-02-24T08:09:11.148Z,100510.47
2023-02-24T08:12:18.226Z,100507.06
2023-02-24T08:15:34.243Z,100507.97
2023-02-24T08:18:40.620Z,100502.78
2023-02-24T08:21:47.539Z,100495.03
2023-02-24T08:24:54.929Z,100487.28
2023-02-24T08:28:08.398Z,100483.91
2023-02-24T08:31:13.239Z,100472.66
2023-02-24T08:34:16.972Z,100478.69
2023-02-24T08:37:22.025Z,100477.81
2023-02-24T08:40:43.304Z,100468.28
2023-02-24T08:43:47.678Z,100461.44
2023-02-24T08:46:52.494Z,100453.66
2023-02-24T08:49:56.175Z,100450.19
2023-02-24T08:53:02.197Z,100439.81
2023-02-24T08:56:09.713Z,100431.28
2023-02-24T08:59:29.254Z,100427.84
2023-02-24T09:02:37.472Z,100421.72
2023-02-24T09:05:41.153Z,100417.41
2023-02-24T09:08:47.373Z,100403.56
2023-02-24T09:11:56.380Z,100401.91
2023-02-24T09:15:05.546Z,100398.50
2023-02-24T09:18:14.327Z,100386.38
2023-02-24T09:21:38.111Z,100387.19
2023-02-24T09:24:43.674Z,100384.66
2023-02-24T09:27:52.430Z,100376.03
2023-02-24T09:30:59.018Z,100368.25
2023-02-24T09:34:04.073Z,100371.66
2023-02-24T09:37:24.905Z,100357.78
2023-02-24T09:40:48.933Z,100356.03
2023-02-24T09:43:59.951Z,100346.50
2023-02-24T09:47:19.996Z,100340.47
2023-02-24T09:51:03.125Z,100333.44
2023-02-24T09:54:17.638Z,100335.13
2023-02-24T09:57:37.362Z,100326.53
2023-02-24T10:00:49.143Z,100312.63
2023-02-24T10:04:14.963Z,100307.41
2023-02-24T10:07:38.538Z,100298.81
2023-02-24T10:11:00.895Z,100301.41
2023-02-24T10:14:19.564Z,100297.19
2023-02-24T10:17:30.699Z,100297.16
2023-02-24T10:20:45.704Z,100299.75
2023-02-24T10:24:05.652Z,100301.41
2023-02-24T10:27:23.952Z,100287.47
2023-02-24T10:30:49.172Z,100285.81
2023-02-24T10:33:58.515Z,100280.56
2023-02-24T10:37:07.728Z,100277.97
2023-02-24T10:40:17.453Z,100277.06
2023-02-24T10:43:30.348Z,100263.28
2023-02-24T10:46:41.450Z,100265.91
2023-02-24T10:49:57.136Z,100259.75
2023-02-24T10:53:34.551Z,100266.75
2023-02-24T10:56:44.676Z,100257.19
2023-02-24T11:00:14.599Z,100244.19
2023-02-24T11:03:35.953Z,100244.16
2023-02-24T11:06:52.748Z,100238.91
2023-02-24T11:10:13.726Z,100242.38
2023-02-24T11:13:36.049Z,100228.59
2023-02-24T11:17:04.707Z,100225.13
2023-02-24T11:20:31.285Z,100214.69
2023-02-24T11:23:45.153Z,100210.94
2023-02-24T11:26:49.591Z,100219.47
2023-02-24T11:30:23.696Z,100206.34
2023-02-24T11:33:42.620Z,100187.28
2023-02-24T11:37:02.790Z,100184.44
2023-02-24T11:40:17.454Z,100177.63
2023-02-24T11:43:27.020Z,100162.94
2023-02-24T11:46:41.730Z,100159.47
2023-02-24T11:49:52.673Z,100148.06
2023-02-24T11:53:02.486Z,100150.56
2023-02-24T11:56:15.446Z,100128.66
2023-02-24T11:59:30.505Z,100127.69
2023-02-24T12:02:47.162Z,100108.59
2023-02-24T12:05:57.588Z,100106.09
2023-02-24T12:09:09.525Z,100101.66
2023-02-24T12:12:23.251Z,100088.41
2023-02-24T12:15:32.154Z,100081.78
2023-02-24T12:18:41.270Z,100075.97
2023-02-24T12:21:53.182Z,100073.28
2023-02-24T12:24:58.504Z,100067.84
2023-02-24T12:28:16.819Z,100061.09
2023-02-24T12:31:37.599Z,100062.03
2023-02-24T12:34:54.184Z,100055.06
2023-02-24T12:38:19.260Z,100057.41
2023-02-24T12:41:51.507Z,100052.44
2023-02-24T12:45:12.072Z,100055.88
2023-02-24T12:48:47.681Z,100050.81
2023-02-24T12:52:13.151Z,100041.84
2023-02-24T12:55:26.757Z,100040.38
2023-02-24T12:58:38.433Z,100033.53
2023-02-24T13:01:52.846Z,100035.16
2023-02-24T13:05:10.338Z,100019.28
2023-02-24T13:08:31.603Z,100018.34
2023-02-24T13:11:48.110Z,100008.53
2023-02-24T13:14:53.456Z,99997.38
2023-02-24T13:17:58.327Z,99993.63
2023-02-24T13:21:10.140Z,99997.00
2023-02-24T13:24:24.679Z,99978.66
2023-02-24T13:27:31.588Z,99971.50
2023-02-24T13:30:45.397Z,99955.50
2023-02-24T13:33:49.522Z,99952.63
2023-02-24T13:36:53.509Z,99946.22
2023-02-24T13:39:57.648Z,99946.78
2023-02-24T13:43:04.878Z,99952.16
2023-02-24T13:46:20.370Z,99946.91
2023-02-24T13:49:36.933Z,99950.25
2023-02-24T13:53:24.897Z,99958.41
2023-02-24T13:56:44.864Z,99965.66
2023-02-24T14:00:10.100Z,99951.44
2023-02-24T14:03:25.722Z,99951.88
2023-02-24T14:06:29.931Z,99945.91
2023-02-24T14:09:39.385Z,99932.81
2023-02-24T14:12:45.382Z,99935.59
2023-02-24T14:15:49.737Z,99933.03
2023-02-24T14:19:01.788Z,99930.81
2023-02-24T14:22:05.861Z,99931.84
2023-02-24T14:25:12.571Z,99925.00
2023-02-24T14:28:24.726Z,99918.94
2023-02-24T14:31:30.247Z,99917.69
2023-02-24T14:34:36.163Z,99911.81
2023-02-24T14:37:40.711Z,99904.91
2023-02-24T14:40:49.234Z,99901.25
2023-02-24T14:43:53.738Z,99900.22
2023-02-24T14:47:00.838Z,99897.38
2023-02-24T14:50:07.266Z,99890.94
2023-02-24T14:53:19.127Z,99887.00
2023-02-24T14:56:29.530Z,99879.84
2023-02-24T14:59:39.734Z,99874.38
2023-02-24T15:02:54.040Z,99871.94
2023-02-24T15:06:05.929Z,99861.53
2023-02-24T15:09:21.082Z,99861.16
2023-02-24T15:12:33.371Z,99852.56
2023-02-24T15:15:39.985Z,99847.41
2023-02-24T15:18:44.164Z,99847.66
2023-02-24T15:21:49.236Z,99847.66
2023-02-24T15:24:55.845Z,99854.91
2023-02-24T15:28:02.463Z,99854.31
2023-02-24T15:31:11.498Z,99855.44
2023-02-24T15:34:21.181Z,99862.84
2023-02-24T15:37:29.012Z,99864.94
2023-02-24T15:40:33.024Z,99882.56
2023-02-24T15:43:40.068Z,99862.53
2023-02-24T15:46:43.698Z,99864.22
2023-02-24T15:49:47.347Z,99860.03
2023-02-24T15:52:52.458Z,99872.16
2023-02-24T15:55:56.190Z,99854.97
2023-02-24T15:59:02.528Z,99861.06
2023-02-24T16:02:15.927Z,99859.31
2023-02-24T16:05:19.990Z,99868.84
2023-02-24T16:08:25.164Z,99882.28
2023-02-24T16:11:35.143Z,99877.91
2023-02-24T16:14:40.024Z,99865.91
2023-02-24T16:17:44.585Z,99872.06
2023-02-24T16:20:54.331Z,99872.91
2023-02-24T16:23:59.415Z,99868.25
2023-02-24T16:27:03.233Z,99891.44
2023-02-24T16:30:08.818Z,99879.22
2023-02-24T16:33:14.645Z,99889.19
2023-02-24T16:36:20.747Z,99896.13
2023-02-24T16:39:26.572Z,99893.78
2023-02-24T16:42:30.068Z,99884.34
2023-02-24T16:45:35.796Z,99873.81
2023-02-24T16:48:41.994Z,99880.63
2023-02-24T16:51:45.683Z,99886.75
2023-02-24T16:54:50.496Z,99883.34
2023-02-24T16:57:54.055Z,99883.66
2023-02-24T17:01:02.738Z,99883.69
2023-02-24T17:04:09.915Z,99893.16
2023-02-24T17:07:14.631Z,99898.19
2023-02-24T17:10:21.045Z,99905.19
2023-02-24T17:13:24.755Z,99900.91
2023-02-24T17:16:28.349Z,99908.78
2023-02-24T17:19:31.994Z,99903.03
2023-02-24T17:22:37.123Z,99900.44
2023-02-24T17:25:42.094Z,99905.44
2023-02-24T17:28:46.008Z,99911.28
2023-02-24T17:31:49.702Z,99914.00
2023-02-24T17:34:53.441Z,99919.44
2023-02-24T17:37:56.997Z,99918.53
2023-02-24T17:41:03.005Z,99922.84
2023-02-24T17:44:08.833Z,99924.41
2023-02-24T17:47:13.096Z,99915.91
2023-02-24T17:50:17.079Z,99914.31
2023-02-24T17:53:21.082Z,99917.72
2023-02-24T17:56:26.325Z,99913.56
2023-02-24T17:59:30.213Z,99929.94
2023-02-24T18:02:34.262Z,99940.38
2023-02-24T18:05:38.332Z,99925.66
2023-02-24T18:08:45.452Z,99928.94
2023-02-24T18:11:51.084Z,99925.53
2023-02-24T18:15:07.239Z,99924.56
2023-02-24T18:18:12.077Z,99918.34
2023-02-24T18:21:15.675Z,99918.38
2023-02-24T18:24:19.645Z,99915.72
2023-02-24T18:27:24.669Z,99921.78
2023-02-24T18:30:28.449Z,99920.94
2023-02-24T18:33:32.128Z,99921.72
2023-02-24T18:36:36.011Z,99913.00
2023-02-24T18:39:39.586Z,99910.38
2023-02-24T18:42:45.110Z,99905.09
2023-02-24T18:45:49.015Z,99900.75
2023-02-24T18:48:55.930Z,99904.31
2023-02-24T18:51:59.763Z,99904.31
2023-02-24T18:55:03.307Z,99905.25
2023-02-24T18:58:08.297Z,99901.03
2023-02-24T19:01:14.202Z,99902.63
2023-02-24T19:04:17.780Z,99894.81
2023-02-24T19:07:21.631Z,99897.22
2023-02-24T19:10:25.534Z,99897.22
2023-02-24T19:13:30.902Z,99904.31
2023-02-24T19:16:36.454Z,99901.69
2023-02-24T19:19:40.857Z,99900.78
2023-02-24T19:22:44.874Z,99900.00
2023-02-24T19:25:52.142Z,99901.88
2023-02-24T19:29:00.071Z,99896.72
2023-02-24T19:32:03.770Z,99897.44
2023-02-24T19:35:09.227Z,99909.31
2023-02-24T19:38:16.231Z,99925.88
2023-02-24T19:41:20.191Z,99931.81
2023-02-24T19:44:25.100Z,99933.84
2023-02-24T19:47:29.085Z,99930.63
2023-02-24T19:50:32.771Z,99925.63
2023-02-24T19:53:36.468Z,99932.63
2023-02-24T19:56:46.978Z,99937.00
2023-02-24T19:59:55.052Z,99935.25
2023-02-24T20:02:59.131Z,99939.69
2023-02-24T20:06:03.009Z,99933.69
2023-02-24T20:09:08.536Z,99929.28
2023-02-24T20:12:12.192Z,99929.25
2023-02-24T20:15:26.554Z,99922.13
2023-02-24T20:18:31.135Z,99925.78
2023-02-24T20:21:35.575Z,99925.78
2023-02-24T20:24:39.391Z,99928.41
2023-02-24T20:27:42.883Z,99930.16
2023-02-24T20:30:48.065Z,99937.97
2023-02-24T20:35:11.830Z,99937.97
2023-02-24T20:38:15.821Z,99938.88
2023-02-24T20:41:21.201Z,99944.06
2023-02-24T20:44:24.882Z,99939.63
2023-02-24T20:47:30.156Z,99939.75
2023-02-24T20:50:35.729Z,99931.13
2023-02-24T20:53:55.611Z,99931.25
2023-02-24T20:57:00.027Z,99942.47
2023-02-24T21:00:07.962Z,99940.75
2023-02-24T21:03:12.890Z,99945.03
2023-02-24T21:06:18.672Z,99941.50
2023-02-24T21:09:22.351Z,99945.72
2023-02-24T21:12:25.939Z,99944.81
2023-02-24T21:15:52.283Z,99947.34
2023-02-24T21:18:58.880Z,99949.94
2023-02-24T21:22:02.517Z,99946.38
2023-02-24T21:25:07.172Z,99942.09
2023-02-24T21:28:11.430Z,99943.72
2023-02-24T21:31:17.978Z,99950.72
2023-02-24T21:34:23.363Z,99945.44
2023-02-24T21:37:26.966Z,99950.59
2023-02-24T21:40:30.469Z,99950.53
2023-02-24T21:43:34.546Z,99955.69
2023-02-24T21:46:38.259Z,99959.97
2023-02-24T21:49:44.096Z,99947.75
2023-02-24T21:52:47.838Z,99953.88
2023-02-24T21:55:51.367Z,99953.13
2023-02-24T21:58:59.510Z,99953.25
2023-02-24T22:02:03.147Z,99960.03
2023-02-24T22:05:09.013Z,99950.53
2023-02-24T22:08:12.505Z,99955.66
2023-02-24T22:11:18.274Z,99963.44
2023-02-24T22:14:21.835Z,99970.31
2023-02-24T22:17:25.465Z,99971.09
2023-02-24T22:20:30.445Z,99969.31
2023-02-24T22:23:33.945Z,99976.88
2023-02-24T22:26:37.493Z,99983.63
2023-02-24T22:29:41.210Z,99974.88
2023-02-24T22:32:44.776Z,99976.94
2023-02-24T22:35:49.697Z,99977.63
2023-02-24T22:38:54.017Z,99961.22
2023-02-24T22:41:57.615Z,99972.25
2023-02-24T22:45:01.353Z,99976.38
2023-02-24T22:48:05.382Z,99967.66
2023-02-24T22:51:13.360Z,99971.97
2023-02-24T22:54:17.252Z,99980.78
2023-02-24T22:57:20.955Z,99986.19
2023-02-24T23:00:26.267Z,99989.56
2023-02-24T23:03:31.770Z,99989.66
2023-02-24T23:06:37.862Z,99998.31
2023-02-24T23:09:47.232Z,100008.75
2023-02-24T23:12:50.787Z,100019.34
2023-02-24T23:15:54.219Z,100007.41
2023-02-24T23:19:00.983Z,100019.41
2023-02-24T23:22:07.793Z,100021.25
2023-02-24T23:25:13.368Z,100017.75
2023-02-24T23:28:16.937Z,100031.06
2023-02-24T23:31:22.239Z,100034.72
2023-02-24T23:34:25.849Z,100045.28
2023-02-24T23:37:30.825Z,100047.94
2023-02-24T23:40:48.089Z,100054.09
2023-02-24T23:43:53.400Z,100054.19
2023-02-24T23:46:58.557Z,100061.81
2023-02-24T23:50:02.110Z,100060.94
2023-02-24T23:53:07.771Z,100064.41
2023-02-24T23:56:17.292Z,100061.84
2023-02-24T23:59:20.806Z,100067.19
